sensor_id;sensor_type;location;lat;lon;timestamp;P1;durP1;ratioP1;P2;durP2;ratioP2
19800;SDS011;10060;48.274;12.214;2022-07-29T00:02:16;2.75;;;1.70;;
19800;SDS011;10060;48.274;12.214;2022-07-29T00:05:19;4.18;;;1.75;;
19800;SDS011;10060;48.274;12.214;2022-07-29T00:08:21;1.55;;;1.45;;
19800;SDS011;10060;48.274;12.214;2022-07-29T00:11:24;1.77;;;1.67;;
19800;SDS011;10060;48.274;12.214;2022-07-29T00:14:27;1.88;;;1.50;;
19800;SDS011;10060;48.274;12.214;2022-07-29T00:17:29;4.05;;;1.80;;
19800;SDS011;10060;48.274;12.214;2022-07-29T00:20:31;2.05;;;1.85;;
19800;SDS011;10060;48.274;12.214;2022-07-29T00:23:33;2.42;;;1.50;;
19800;SDS011;10060;48.274;12.214;2022-07-29T00:26:37;1.67;;;1.58;;
19800;SDS011;10060;48.274;12.214;2022-07-29T00:29:39;2.00;;;1.75;;
19800;SDS011;10060;48.274;12.214;2022-07-29T00:32:41;1.70;;;1.42;;
19800;SDS011;10060;48.274;12.214;2022-07-29T00:35:43;2.15;;;1.58;;
19800;SDS011;10060;48.274;12.214;2022-07-29T00:38:45;2.60;;;1.70;;
19800;SDS011;10060;48.274;12.214;2022-07-29T00:41:48;1.50;;;1.40;;
19800;SDS011;10060;48.274;12.214;2022-07-29T00:44:50;2.08;;;1.50;;
19800;SDS011;10060;48.274;12.214;2022-07-29T00:47:52;2.50;;;1.50;;
19800;SDS011;10060;48.274;12.214;2022-07-29T00:50:55;2.35;;;1.67;;
19800;SDS011;10060;48.274;12.214;2022-07-29T00:53:57;2.20;;;1.40;;
19800;SDS011;10060;48.274;12.214;2022-07-29T00:57:01;1.80;;;1.40;;
19800;SDS011;10060;48.274;12.214;2022-07-29T01:00:03;2.05;;;1.38;;
19800;SDS011;10060;48.274;12.214;2022-07-29T01:03:06;3.60;;;1.38;;
19800;SDS011;10060;48.274;12.214;2022-07-29T01:06:08;1.73;;;1.52;;
19800;SDS011;10060;48.274;12.214;2022-07-29T01:09:11;2.30;;;1.60;;
19800;SDS011;10060;48.274;12.214;2022-07-29T01:12:16;2.20;;;1.30;;
19800;SDS011;10060;48.274;12.214;2022-07-29T01:15:18;11.20;;;1.42;;
19800;SDS011;10060;48.274;12.214;2022-07-29T01:18:22;1.35;;;1.17;;
19800;SDS011;10060;48.274;12.214;2022-07-29T01:21:40;2.55;;;1.58;;
19800;SDS011;10060;48.274;12.214;2022-07-29T01:24:54;1.42;;;1.33;;
19800;SDS011;10060;48.274;12.214;2022-07-29T01:28:08;1.98;;;1.25;;
19800;SDS011;10060;48.274;12.214;2022-07-29T01:31:19;2.03;;;1.42;;
19800;SDS011;10060;48.274;12.214;2022-07-29T01:34:23;3.53;;;1.33;;
19800;SDS011;10060;48.274;12.214;2022-07-29T01:37:28;2.55;;;1.50;;
19800;SDS011;10060;48.274;12.214;2022-07-29T01:40:33;1.50;;;1.35;;
19800;SDS011;10060;48.274;12.214;2022-07-29T01:43:38;1.80;;;1.30;;
19800;SDS011;10060;48.274;12.214;2022-07-29T01:46:44;1.55;;;1.45;;
19800;SDS011;10060;48.274;12.214;2022-07-29T01:49:49;1.30;;;1.10;;
19800;SDS011;10060;48.274;12.214;2022-07-29T01:52:52;1.30;;;1.20;;
19800;SDS011;10060;48.274;12.214;2022-07-29T01:55:55;2.28;;;1.35;;
19800;SDS011;10060;48.274;12.214;2022-07-29T01:58:59;1.60;;;1.40;;
19800;SDS011;10060;48.274;12.214;2022-07-29T02:02:03;1.42;;;1.27;;
19800;SDS011;10060;48.274;12.214;2022-07-29T02:05:09;1.92;;;1.60;;
19800;SDS011;10060;48.274;12.214;2022-07-29T02:08:12;3.63;;;1.65;;
19800;SDS011;10060;48.274;12.214;2022-07-29T02:11:15;1.63;;;1.52;;
19800;SDS011;10060;48.274;12.214;2022-07-29T02:14:17;1.38;;;1.17;;
19800;SDS011;10060;48.274;12.214;2022-07-29T02:17:22;2.13;;;1.42;;
19800;SDS011;10060;48.274;12.214;2022-07-29T02:20:25;1.65;;;1.50;;
19800;SDS011;10060;48.274;12.214;2022-07-29T02:23:28;2.55;;;1.40;;
19800;SDS011;10060;48.274;12.214;2022-07-29T02:26:32;1.55;;;1.35;;
19800;SDS011;10060;48.274;12.214;2022-07-29T02:29:35;1.70;;;1.45;;
19800;SDS011;10060;48.274;12.214;2022-07-29T02:32:40;1.70;;;1.40;;
19800;SDS011;10060;48.274;12.214;2022-07-29T02:35:43;1.50;;;1.40;;
19800;SDS011;10060;48.274;12.214;2022-07-29T02:38:46;1.88;;;1.70;;
19800;SDS011;10060;48.274;12.214;2022-07-29T02:41:52;1.75;;;1.65;;
19800;SDS011;10060;48.274;12.214;2022-07-29T02:44:56;2.35;;;1.40;;
19800;SDS011;10060;48.274;12.214;2022-07-29T02:48:00;1.45;;;1.35;;
19800;SDS011;10060;48.274;12.214;2022-07-29T02:51:08;2.78;;;1.50;;
19800;SDS011;10060;48.274;12.214;2022-07-29T02:54:18;1.70;;;1.40;;
19800;SDS011;10060;48.274;12.214;2022-07-29T02:57:22;1.50;;;1.40;;
19800;SDS011;10060;48.274;12.214;2022-07-29T03:00:31;2.30;;;1.50;;
19800;SDS011;10060;48.274;12.214;2022-07-29T03:03:36;2.55;;;1.50;;
19800;SDS011;10060;48.274;12.214;2022-07-29T03:06:39;2.42;;;1.40;;
19800;SDS011;10060;48.274;12.214;2022-07-29T03:09:42;1.42;;;1.30;;
19800;SDS011;10060;48.274;12.214;2022-07-29T03:12:44;2.30;;;1.63;;
19800;SDS011;10060;48.274;12.214;2022-07-29T03:15:47;3.05;;;1.40;;
19800;SDS011;10060;48.274;12.214;2022-07-29T03:18:51;2.10;;;1.50;;
19800;SDS011;10060;48.274;12.214;2022-07-29T03:21:54;1.60;;;1.50;;
19800;SDS011;10060;48.274;12.214;2022-07-29T03:24:57;1.70;;;1.60;;
19800;SDS011;10060;48.274;12.214;2022-07-29T03:27:59;4.25;;;1.80;;
19800;SDS011;10060;48.274;12.214;2022-07-29T03:31:02;1.80;;;1.60;;
19800;SDS011;10060;48.274;12.214;2022-07-29T03:34:05;1.88;;;1.60;;
19800;SDS011;10060;48.274;12.214;2022-07-29T03:37:07;2.63;;;1.80;;
19800;SDS011;10060;48.274;12.214;2022-07-29T03:40:11;3.05;;;1.75;;
19800;SDS011;10060;48.274;12.214;2022-07-29T03:43:14;2.63;;;1.92;;
19800;SDS011;10060;48.274;12.214;2022-07-29T03:46:17;4.03;;;1.67;;
19800;SDS011;10060;48.274;12.214;2022-07-29T03:49:21;2.10;;;1.85;;
19800;SDS011;10060;48.274;12.214;2022-07-29T03:52:24;2.20;;;1.52;;
19800;SDS011;10060;48.274;12.214;2022-07-29T03:55:26;2.42;;;1.70;;
19800;SDS011;10060;48.274;12.214;2022-07-29T03:58:29;3.92;;;1.85;;
19800;SDS011;10060;48.274;12.214;2022-07-29T04:01:32;3.50;;;1.63;;
19800;SDS011;10060;48.274;12.214;2022-07-29T04:04:36;3.28;;;1.70;;
19800;SDS011;10060;48.274;12.214;2022-07-29T04:07:39;1.48;;;1.38;;
19800;SDS011;10060;48.274;12.214;2022-07-29T04:10:41;8.40;;;3.55;;
19800;SDS011;10060;48.274;12.214;2022-07-29T04:13:43;16.77;;;5.60;;
19800;SDS011;10060;48.274;12.214;2022-07-29T04:16:45;12.25;;;4.63;;
19800;SDS011;10060;48.274;12.214;2022-07-29T04:19:49;21.15;;;5.22;;
19800;SDS011;10060;48.274;12.214;2022-07-29T04:22:51;5.35;;;2.58;;
19800;SDS011;10060;48.274;12.214;2022-07-29T04:25:54;5.13;;;2.83;;
19800;SDS011;10060;48.274;12.214;2022-07-29T04:28:56;5.35;;;2.58;;
19800;SDS011;10060;48.274;12.214;2022-07-29T04:31:58;4.18;;;1.95;;
19800;SDS011;10060;48.274;12.214;2022-07-29T04:35:02;3.65;;;2.20;;
19800;SDS011;10060;48.274;12.214;2022-07-29T04:38:05;1.85;;;1.50;;
19800;SDS011;10060;48.274;12.214;2022-07-29T04:41:07;2.00;;;1.50;;
19800;SDS011;10060;48.274;12.214;2022-07-29T04:44:09;6.15;;;1.75;;
19800;SDS011;10060;48.274;12.214;2022-07-29T04:47:12;3.20;;;1.90;;
19800;SDS011;10060;48.274;12.214;2022-07-29T04:50:15;3.67;;;1.80;;
19800;SDS011;10060;48.274;12.214;2022-07-29T04:53:17;3.50;;;1.88;;
19800;SDS011;10060;48.274;12.214;2022-07-29T04:56:20;4.30;;;2.00;;
19800;SDS011;10060;48.274;12.214;2022-07-29T04:59:22;2.45;;;2.03;;
19800;SDS011;10060;48.274;12.214;2022-07-29T05:02:25;3.15;;;1.77;;
19800;SDS011;10060;48.274;12.214;2022-07-29T05:05:28;2.55;;;1.67;;
19800;SDS011;10060;48.274;12.214;2022-07-29T05:08:31;2.47;;;1.98;;
19800;SDS011;10060;48.274;12.214;2022-07-29T05:11:33;4.57;;;1.77;;
19800;SDS011;10060;48.274;12.214;2022-07-29T05:14:35;2.60;;;2.05;;
19800;SDS011;10060;48.274;12.214;2022-07-29T05:17:37;15.25;;;4.68;;
19800;SDS011;10060;48.274;12.214;2022-07-29T05:20:41;3.05;;;2.05;;
19800;SDS011;10060;48.274;12.214;2022-07-29T05:23:43;3.13;;;2.22;;
19800;SDS011;10060;48.274;12.214;2022-07-29T05:26:45;4.38;;;2.08;;
19800;SDS011;10060;48.274;12.214;2022-07-29T05:29:48;3.47;;;1.75;;
19800;SDS011;10060;48.274;12.214;2022-07-29T05:32:50;3.45;;;1.88;;
19800;SDS011;10060;48.274;12.214;2022-07-29T05:35:54;4.45;;;2.08;;
19800;SDS011;10060;48.274;12.214;2022-07-29T05:38:56;2.22;;;1.75;;
19800;SDS011;10060;48.274;12.214;2022-07-29T05:41:58;5.43;;;2.15;;
19800;SDS011;10060;48.274;12.214;2022-07-29T05:45:00;8.45;;;2.10;;
19800;SDS011;10060;48.274;12.214;2022-07-29T05:48:03;4.47;;;2.00;;
19800;SDS011;10060;48.274;12.214;2022-07-29T05:51:06;3.72;;;1.70;;
19800;SDS011;10060;48.274;12.214;2022-07-29T05:54:09;2.35;;;1.70;;
19800;SDS011;10060;48.274;12.214;2022-07-29T05:57:14;3.88;;;1.50;;
19800;SDS011;10060;48.274;12.214;2022-07-29T06:00:17;2.53;;;1.70;;
19800;SDS011;10060;48.274;12.214;2022-07-29T06:03:19;3.33;;;2.00;;
19800;SDS011;10060;48.274;12.214;2022-07-29T06:06:23;3.22;;;2.15;;
19800;SDS011;10060;48.274;12.214;2022-07-29T06:09:25;2.40;;;2.20;;
19800;SDS011;10060;48.274;12.214;2022-07-29T06:12:27;2.35;;;2.03;;
19800;SDS011;10060;48.274;12.214;2022-07-29T06:15:29;2.83;;;1.90;;
19800;SDS011;10060;48.274;12.214;2022-07-29T06:18:32;3.45;;;2.00;;
19800;SDS011;10060;48.274;12.214;2022-07-29T06:21:36;2.08;;;1.73;;
19800;SDS011;10060;48.274;12.214;2022-07-29T06:24:38;2.17;;;1.98;;
19800;SDS011;10060;48.274;12.214;2022-07-29T06:27:43;2.95;;;1.88;;
19800;SDS011;10060;48.274;12.214;2022-07-29T06:30:45;3.75;;;2.08;;
19800;SDS011;10060;48.274;12.214;2022-07-29T06:33:48;2.65;;;2.15;;
19800;SDS011;10060;48.274;12.214;2022-07-29T06:36:52;2.58;;;2.05;;
19800;SDS011;10060;48.274;12.214;2022-07-29T06:39:54;3.40;;;2.38;;
19800;SDS011;10060;48.274;12.214;2022-07-29T06:43:10;2.97;;;2.10;;
19800;SDS011;10060;48.274;12.214;2022-07-29T06:46:13;3.65;;;2.10;;
19800;SDS011;10060;48.274;12.214;2022-07-29T06:49:15;4.05;;;2.10;;
19800;SDS011;10060;48.274;12.214;2022-07-29T06:52:19;2.58;;;2.03;;
19800;SDS011;10060;48.274;12.214;2022-07-29T06:55:21;2.47;;;2.10;;
19800;SDS011;10060;48.274;12.214;2022-07-29T06:58:24;2.63;;;2.00;;
19800;SDS011;10060;48.274;12.214;2022-07-29T07:01:26;4.28;;;2.50;;
19800;SDS011;10060;48.274;12.214;2022-07-29T07:04:29;2.67;;;2.22;;
19800;SDS011;10060;48.274;12.214;2022-07-29T07:07:33;3.97;;;2.33;;
19800;SDS011;10060;48.274;12.214;2022-07-29T07:10:35;3.83;;;1.90;;
19800;SDS011;10060;48.274;12.214;2022-07-29T07:13:37;3.83;;;1.73;;
19800;SDS011;10060;48.274;12.214;2022-07-29T07:16:40;4.38;;;2.00;;
19800;SDS011;10060;48.274;12.214;2022-07-29T07:19:42;2.80;;;1.83;;
19800;SDS011;10060;48.274;12.214;2022-07-29T07:22:46;2.03;;;1.65;;
19800;SDS011;10060;48.274;12.214;2022-07-29T07:25:48;1.83;;;1.63;;
19800;SDS011;10060;48.274;12.214;2022-07-29T07:28:51;1.65;;;1.55;;
19800;SDS011;10060;48.274;12.214;2022-07-29T07:31:53;2.95;;;1.85;;
19800;SDS011;10060;48.274;12.214;2022-07-29T07:34:55;2.08;;;1.77;;
19800;SDS011;10060;48.274;12.214;2022-07-29T07:38:00;1.92;;;1.73;;
19800;SDS011;10060;48.274;12.214;2022-07-29T07:41:02;2.45;;;1.67;;
19800;SDS011;10060;48.274;12.214;2022-07-29T07:44:05;1.90;;;1.70;;
19800;SDS011;10060;48.274;12.214;2022-07-29T07:47:07;2.08;;;1.70;;
19800;SDS011;10060;48.274;12.214;2022-07-29T07:50:10;2.95;;;1.85;;
19800;SDS011;10060;48.274;12.214;2022-07-29T07:53:15;1.75;;;1.65;;
19800;SDS011;10060;48.274;12.214;2022-07-29T07:56:17;1.50;;;1.40;;
19800;SDS011;10060;48.274;12.214;2022-07-29T07:59:19;1.85;;;1.30;;
19800;SDS011;10060;48.274;12.214;2022-07-29T08:02:21;1.75;;;1.60;;
19800;SDS011;10060;48.274;12.214;2022-07-29T08:05:24;1.73;;;1.40;;
19800;SDS011;10060;48.274;12.214;2022-07-29T08:08:27;3.58;;;1.95;;
19800;SDS011;10060;48.274;12.214;2022-07-29T08:11:30;1.90;;;1.70;;
19800;SDS011;10060;48.274;12.214;2022-07-29T08:14:32;2.28;;;1.50;;
19800;SDS011;10060;48.274;12.214;2022-07-29T08:17:34;1.77;;;1.50;;
19800;SDS011;10060;48.274;12.214;2022-07-29T08:20:36;1.85;;;1.60;;
19800;SDS011;10060;48.274;12.214;2022-07-29T08:23:40;2.13;;;1.40;;
19800;SDS011;10060;48.274;12.214;2022-07-29T08:26:49;2.80;;;1.40;;
19800;SDS011;10060;48.274;12.214;2022-07-29T08:29:51;1.48;;;1.30;;
19800;SDS011;10060;48.274;12.214;2022-07-29T08:32:55;1.95;;;1.55;;
19800;SDS011;10060;48.274;12.214;2022-07-29T08:35:57;1.20;;;1.10;;
19800;SDS011;10060;48.274;12.214;2022-07-29T08:39:02;1.50;;;1.40;;
19800;SDS011;10060;48.274;12.214;2022-07-29T08:42:05;1.38;;;1.10;;
19800;SDS011;10060;48.274;12.214;2022-07-29T08:45:08;1.60;;;1.40;;
19800;SDS011;10060;48.274;12.214;2022-07-29T08:48:11;2.45;;;1.63;;
19800;SDS011;10060;48.274;12.214;2022-07-29T08:51:13;1.83;;;1.50;;
19800;SDS011;10060;48.274;12.214;2022-07-29T08:54:17;3.65;;;1.30;;
19800;SDS011;10060;48.274;12.214;2022-07-29T08:57:22;2.08;;;1.10;;
19800;SDS011;10060;48.274;12.214;2022-07-29T09:00:25;1.40;;;1.25;;
19800;SDS011;10060;48.274;12.214;2022-07-29T09:03:29;3.00;;;1.40;;
19800;SDS011;10060;48.274;12.214;2022-07-29T09:06:34;2.30;;;1.80;;
19800;SDS011;10060;48.274;12.214;2022-07-29T09:09:37;1.70;;;1.42;;
19800;SDS011;10060;48.274;12.214;2022-07-29T09:12:40;1.45;;;1.35;;
19800;SDS011;10060;48.274;12.214;2022-07-29T09:15:42;1.95;;;1.42;;
19800;SDS011;10060;48.274;12.214;2022-07-29T09:18:45;1.50;;;1.35;;
19800;SDS011;10060;48.274;12.214;2022-07-29T09:21:47;3.13;;;1.40;;
19800;SDS011;10060;48.274;12.214;2022-07-29T09:25:00;3.08;;;1.50;;
19800;SDS011;10060;48.274;12.214;2022-07-29T09:28:05;2.13;;;1.63;;
19800;SDS011;10060;48.274;12.214;2022-07-29T09:31:08;2.67;;;1.50;;
19800;SDS011;10060;48.274;12.214;2022-07-29T09:34:11;1.75;;;1.40;;
19800;SDS011;10060;48.274;12.214;2022-07-29T09:37:25;1.67;;;1.42;;
19800;SDS011;10060;48.274;12.214;2022-07-29T09:40:29;3.08;;;1.40;;
19800;SDS011;10060;48.274;12.214;2022-07-29T09:43:31;3.00;;;1.40;;
19800;SDS011;10060;48.274;12.214;2022-07-29T09:46:33;1.70;;;1.35;;
19800;SDS011;10060;48.274;12.214;2022-07-29T09:49:49;1.75;;;1.20;;
19800;SDS011;10060;48.274;12.214;2022-07-29T09:52:52;1.50;;;1.30;;
19800;SDS011;10060;48.274;12.214;2022-07-29T09:55:56;1.45;;;1.20;;
19800;SDS011;10060;48.274;12.214;2022-07-29T09:59:04;1.80;;;1.33;;
19800;SDS011;10060;48.274;12.214;2022-07-29T10:02:11;1.40;;;1.23;;
19800;SDS011;10060;48.274;12.214;2022-07-29T10:05:18;1.20;;;0.98;;
19800;SDS011;10060;48.274;12.214;2022-07-29T10:08:24;1.73;;;1.40;;
19800;SDS011;10060;48.274;12.214;2022-07-29T10:11:28;1.30;;;1.20;;
19800;SDS011;10060;48.274;12.214;2022-07-29T10:14:30;2.05;;;1.20;;
19800;SDS011;10060;48.274;12.214;2022-07-29T10:17:33;1.45;;;1.35;;
19800;SDS011;10060;48.274;12.214;2022-07-29T10:20:36;1.42;;;1.30;;
19800;SDS011;10060;48.274;12.214;2022-07-29T10:23:38;1.52;;;1.38;;
19800;SDS011;10060;48.274;12.214;2022-07-29T10:26:42;1.63;;;1.30;;
19800;SDS011;10060;48.274;12.214;2022-07-29T10:29:46;3.28;;;1.58;;
19800;SDS011;10060;48.274;12.214;2022-07-29T10:33:06;2.08;;;1.50;;
19800;SDS011;10060;48.274;12.214;2022-07-29T10:36:15;2.10;;;1.90;;
19800;SDS011;10060;48.274;12.214;2022-07-29T10:39:25;2.50;;;1.52;;
19800;SDS011;10060;48.274;12.214;2022-07-29T10:42:33;2.40;;;2.00;;
19800;SDS011;10060;48.274;12.214;2022-07-29T10:45:41;2.13;;;1.90;;
19800;SDS011;10060;48.274;12.214;2022-07-29T10:52:02;3.03;;;2.13;;
19800;SDS011;10060;48.274;12.214;2022-07-29T10:55:05;2.40;;;1.75;;
19800;SDS011;10060;48.274;12.214;2022-07-29T10:58:12;2.20;;;2.00;;
19800;SDS011;10060;48.274;12.214;2022-07-29T11:01:28;1.88;;;1.60;;
19800;SDS011;10060;48.274;12.214;2022-07-29T11:18:04;3.35;;;1.88;;
19800;SDS011;10060;48.274;12.214;2022-07-29T11:21:06;2.83;;;2.10;;
19800;SDS011;10060;48.274;12.214;2022-07-29T11:24:29;2.97;;;2.35;;
19800;SDS011;10060;48.274;12.214;2022-07-29T11:27:32;4.45;;;2.42;;
19800;SDS011;10060;48.274;12.214;2022-07-29T11:30:48;4.03;;;2.10;;
19800;SDS011;10060;48.274;12.214;2022-07-29T11:33:52;5.40;;;2.60;;
19800;SDS011;10060;48.274;12.214;2022-07-29T11:40:18;3.53;;;2.08;;
19800;SDS011;10060;48.274;12.214;2022-07-29T11:46:45;2.40;;;2.20;;
19800;SDS011;10060;48.274;12.214;2022-07-29T11:49:50;2.70;;;2.20;;
19800;SDS011;10060;48.274;12.214;2022-07-29T11:52:53;3.10;;;2.22;;
19800;SDS011;10060;48.274;12.214;2022-07-29T11:55:55;4.07;;;2.60;;
19800;SDS011;10060;48.274;12.214;2022-07-29T11:59:02;4.03;;;2.42;;
19800;SDS011;10060;48.274;12.214;2022-07-29T12:02:06;3.55;;;2.55;;
19800;SDS011;10060;48.274;12.214;2022-07-29T12:05:10;4.53;;;2.80;;
19800;SDS011;10060;48.274;12.214;2022-07-29T12:08:13;4.47;;;2.65;;
19800;SDS011;10060;48.274;12.214;2022-07-29T12:11:16;2.92;;;2.50;;
19800;SDS011;10060;48.274;12.214;2022-07-29T12:14:26;3.95;;;2.33;;
19800;SDS011;10060;48.274;12.214;2022-07-29T12:17:29;2.75;;;2.35;;
19800;SDS011;10060;48.274;12.214;2022-07-29T12:20:33;4.57;;;2.80;;
19800;SDS011;10060;48.274;12.214;2022-07-29T12:23:35;2.63;;;2.40;;
19800;SDS011;10060;48.274;12.214;2022-07-29T12:26:48;2.80;;;2.42;;
19800;SDS011;10060;48.274;12.214;2022-07-29T12:29:56;4.20;;;2.72;;
19800;SDS011;10060;48.274;12.214;2022-07-29T12:32:59;5.05;;;2.60;;
19800;SDS011;10060;48.274;12.214;2022-07-29T12:36:03;4.75;;;2.90;;
19800;SDS011;10060;48.274;12.214;2022-07-29T12:39:05;4.55;;;2.63;;
19800;SDS011;10060;48.274;12.214;2022-07-29T12:42:12;4.15;;;2.50;;
19800;SDS011;10060;48.274;12.214;2022-07-29T12:45:14;4.32;;;2.65;;
19800;SDS011;10060;48.274;12.214;2022-07-29T12:48:17;4.25;;;2.83;;
19800;SDS011;10060;48.274;12.214;2022-07-29T12:51:28;2.50;;;2.30;;
19800;SDS011;10060;48.274;12.214;2022-07-29T12:54:31;4.85;;;2.83;;
19800;SDS011;10060;48.274;12.214;2022-07-29T12:57:43;3.40;;;2.70;;
19800;SDS011;10060;48.274;12.214;2022-07-29T13:00:46;7.15;;;2.40;;
19800;SDS011;10060;48.274;12.214;2022-07-29T13:03:50;4.57;;;2.50;;
19800;SDS011;10060;48.274;12.214;2022-07-29T13:06:59;7.30;;;2.20;;
19800;SDS011;10060;48.274;12.214;2022-07-29T13:10:12;3.35;;;2.60;;
19800;SDS011;10060;48.274;12.214;2022-07-29T13:13:14;6.03;;;2.85;;
19800;SDS011;10060;48.274;12.214;2022-07-29T13:16:17;3.38;;;2.50;;
19800;SDS011;10060;48.274;12.214;2022-07-29T13:19:19;6.28;;;5.63;;
19800;SDS011;10060;48.274;12.214;2022-07-29T13:22:35;5.85;;;3.03;;
19800;SDS011;10060;48.274;12.214;2022-07-29T13:25:37;4.00;;;2.80;;
19800;SDS011;10060;48.274;12.214;2022-07-29T13:28:40;4.50;;;2.83;;
19800;SDS011;10060;48.274;12.214;2022-07-29T13:31:42;4.15;;;2.60;;
19800;SDS011;10060;48.274;12.214;2022-07-29T13:34:45;6.50;;;2.60;;
19800;SDS011;10060;48.274;12.214;2022-07-29T13:37:48;3.58;;;2.97;;
19800;SDS011;10060;48.274;12.214;2022-07-29T13:40:51;4.00;;;2.83;;
19800;SDS011;10060;48.274;12.214;2022-07-29T13:43:53;5.15;;;2.45;;
19800;SDS011;10060;48.274;12.214;2022-07-29T13:46:55;4.80;;;2.33;;
19800;SDS011;10060;48.274;12.214;2022-07-29T13:49:58;5.90;;;2.78;;
19800;SDS011;10060;48.274;12.214;2022-07-29T13:53:02;4.13;;;2.22;;
19800;SDS011;10060;48.274;12.214;2022-07-29T13:56:05;3.42;;;2.97;;
19800;SDS011;10060;48.274;12.214;2022-07-29T13:59:07;4.50;;;3.08;;
19800;SDS011;10060;48.274;12.214;2022-07-29T14:02:09;3.78;;;2.55;;
19800;SDS011;10060;48.274;12.214;2022-07-29T14:05:12;3.22;;;2.35;;
19800;SDS011;10060;48.274;12.214;2022-07-29T14:08:15;2.90;;;2.60;;
19800;SDS011;10060;48.274;12.214;2022-07-29T14:11:17;3.72;;;2.58;;
19800;SDS011;10060;48.274;12.214;2022-07-29T14:14:20;4.28;;;2.70;;
19800;SDS011;10060;48.274;12.214;2022-07-29T14:17:22;4.78;;;2.20;;
19800;SDS011;10060;48.274;12.214;2022-07-29T14:20:24;4.55;;;1.98;;
19800;SDS011;10060;48.274;12.214;2022-07-29T14:23:29;10.32;;;2.65;;
19800;SDS011;10060;48.274;12.214;2022-07-29T14:26:32;3.67;;;1.90;;
19800;SDS011;10060;48.274;12.214;2022-07-29T14:29:34;2.80;;;1.80;;
19800;SDS011;10060;48.274;12.214;2022-07-29T14:32:36;3.63;;;1.95;;
19800;SDS011;10060;48.274;12.214;2022-07-29T14:35:38;4.57;;;2.00;;
19800;SDS011;10060;48.274;12.214;2022-07-29T14:38:42;2.13;;;1.85;;
19800;SDS011;10060;48.274;12.214;2022-07-29T14:41:44;5.53;;;2.00;;
19800;SDS011;10060;48.274;12.214;2022-07-29T14:44:46;4.72;;;2.10;;
19800;SDS011;10060;48.274;12.214;2022-07-29T14:47:49;4.78;;;1.98;;
19800;SDS011;10060;48.274;12.214;2022-07-29T14:50:51;5.90;;;1.73;;
19800;SDS011;10060;48.274;12.214;2022-07-29T14:53:56;5.40;;;2.67;;
19800;SDS011;10060;48.274;12.214;2022-07-29T14:56:58;5.40;;;2.42;;
19800;SDS011;10060;48.274;12.214;2022-07-29T15:00:00;3.45;;;2.28;;
19800;SDS011;10060;48.274;12.214;2022-07-29T15:03:03;5.85;;;2.55;;
19800;SDS011;10060;48.274;12.214;2022-07-29T15:06:05;4.28;;;2.95;;
19800;SDS011;10060;48.274;12.214;2022-07-29T15:09:08;10.90;;;2.30;;
19800;SDS011;10060;48.274;12.214;2022-07-29T15:12:11;3.80;;;2.03;;
19800;SDS011;10060;48.274;12.214;2022-07-29T15:15:13;5.80;;;2.80;;
19800;SDS011;10060;48.274;12.214;2022-07-29T15:18:15;5.78;;;2.30;;
19800;SDS011;10060;48.274;12.214;2022-07-29T15:21:17;5.68;;;2.70;;
19800;SDS011;10060;48.274;12.214;2022-07-29T15:24:21;9.98;;;2.65;;
19800;SDS011;10060;48.274;12.214;2022-07-29T15:27:23;5.75;;;1.95;;
19800;SDS011;10060;48.274;12.214;2022-07-29T15:30:25;4.10;;;2.10;;
19800;SDS011;10060;48.274;12.214;2022-07-29T15:33:27;3.40;;;1.80;;
19800;SDS011;10060;48.274;12.214;2022-07-29T15:36:29;4.85;;;2.40;;
19800;SDS011;10060;48.274;12.214;2022-07-29T15:39:33;5.07;;;2.10;;
19800;SDS011;10060;48.274;12.214;2022-07-29T15:42:35;3.03;;;2.05;;
19800;SDS011;10060;48.274;12.214;2022-07-29T15:45:38;4.53;;;1.90;;
19800;SDS011;10060;48.274;12.214;2022-07-29T15:48:41;9.75;;;2.67;;
19800;SDS011;10060;48.274;12.214;2022-07-29T15:51:43;4.47;;;2.30;;
19800;SDS011;10060;48.274;12.214;2022-07-29T15:54:47;5.80;;;2.47;;
19800;SDS011;10060;48.274;12.214;2022-07-29T15:57:49;4.80;;;2.30;;
19800;SDS011;10060;48.274;12.214;2022-07-29T16:00:51;4.78;;;2.30;;
19800;SDS011;10060;48.274;12.214;2022-07-29T16:03:53;3.35;;;2.20;;
19800;SDS011;10060;48.274;12.214;2022-07-29T16:06:55;4.80;;;2.10;;
19800;SDS011;10060;48.274;12.214;2022-07-29T16:09:59;6.60;;;2.35;;
19800;SDS011;10060;48.274;12.214;2022-07-29T16:13:01;4.25;;;2.30;;
19800;SDS011;10060;48.274;12.214;2022-07-29T16:16:03;5.40;;;2.60;;
19800;SDS011;10060;48.274;12.214;2022-07-29T16:19:06;4.35;;;2.05;;
19800;SDS011;10060;48.274;12.214;2022-07-29T16:22:11;10.52;;;2.20;;
19800;SDS011;10060;48.274;12.214;2022-07-29T16:25:14;2.47;;;1.90;;
19800;SDS011;10060;48.274;12.214;2022-07-29T16:28:17;3.88;;;2.10;;
19800;SDS011;10060;48.274;12.214;2022-07-29T16:31:19;5.40;;;2.53;;
19800;SDS011;10060;48.274;12.214;2022-07-29T16:34:22;8.93;;;2.30;;
19800;SDS011;10060;48.274;12.214;2022-07-29T16:37:24;4.63;;;2.28;;
19800;SDS011;10060;48.274;12.214;2022-07-29T16:40:33;4.63;;;2.25;;
19800;SDS011;10060;48.274;12.214;2022-07-29T16:43:36;3.30;;;2.33;;
19800;SDS011;10060;48.274;12.214;2022-07-29T16:46:38;3.17;;;2.38;;
19800;SDS011;10060;48.274;12.214;2022-07-29T16:49:40;3.15;;;2.60;;
19800;SDS011;10060;48.274;12.214;2022-07-29T16:52:42;7.40;;;2.72;;
19800;SDS011;10060;48.274;12.214;2022-07-29T16:55:46;3.60;;;2.60;;
19800;SDS011;10060;48.274;12.214;2022-07-29T16:58:48;3.22;;;2.60;;
19800;SDS011;10060;48.274;12.214;2022-07-29T17:01:50;3.30;;;2.40;;
19800;SDS011;10060;48.274;12.214;2022-07-29T17:04:52;3.65;;;2.53;;
19800;SDS011;10060;48.274;12.214;2022-07-29T17:07:55;2.95;;;2.50;;
19800;SDS011;10060;48.274;12.214;2022-07-29T17:10:58;4.15;;;2.55;;
19800;SDS011;10060;48.274;12.214;2022-07-29T17:14:01;3.25;;;2.55;;
19800;SDS011;10060;48.274;12.214;2022-07-29T17:17:03;2.95;;;2.50;;
19800;SDS011;10060;48.274;12.214;2022-07-29T17:20:06;8.90;;;2.95;;
19800;SDS011;10060;48.274;12.214;2022-07-29T17:23:08;5.65;;;3.10;;
19800;SDS011;10060;48.274;12.214;2022-07-29T17:26:12;5.22;;;2.90;;
19800;SDS011;10060;48.274;12.214;2022-07-29T17:29:14;8.77;;;3.50;;
19800;SDS011;10060;48.274;12.214;2022-07-29T17:32:16;6.03;;;2.92;;
19800;SDS011;10060;48.274;12.214;2022-07-29T17:35:18;6.72;;;3.28;;
19800;SDS011;10060;48.274;12.214;2022-07-29T17:38:38;11.10;;;2.92;;
19800;SDS011;10060;48.274;12.214;2022-07-29T17:41:42;9.60;;;3.25;;
19800;SDS011;10060;48.274;12.214;2022-07-29T17:44:45;8.02;;;3.35;;
19800;SDS011;10060;48.274;12.214;2022-07-29T17:47:47;7.68;;;3.30;;
19800;SDS011;10060;48.274;12.214;2022-07-29T17:50:50;7.78;;;3.15;;
19800;SDS011;10060;48.274;12.214;2022-07-29T17:53:52;7.15;;;3.13;;
19800;SDS011;10060;48.274;12.214;2022-07-29T17:56:55;4.72;;;3.38;;
19800;SDS011;10060;48.274;12.214;2022-07-29T17:59:58;6.88;;;3.65;;
19800;SDS011;10060;48.274;12.214;2022-07-29T18:03:00;8.55;;;3.97;;
19800;SDS011;10060;48.274;12.214;2022-07-29T18:06:02;6.93;;;3.13;;
19800;SDS011;10060;48.274;12.214;2022-07-29T18:09:04;8.95;;;3.40;;
19800;SDS011;10060;48.274;12.214;2022-07-29T18:12:08;6.78;;;2.83;;
19800;SDS011;10060;48.274;12.214;2022-07-29T18:15:10;5.05;;;3.33;;
19800;SDS011;10060;48.274;12.214;2022-07-29T18:18:13;6.43;;;3.17;;
19800;SDS011;10060;48.274;12.214;2022-07-29T18:21:15;5.80;;;3.25;;
19800;SDS011;10060;48.274;12.214;2022-07-29T18:24:17;4.88;;;2.95;;
19800;SDS011;10060;48.274;12.214;2022-07-29T18:27:21;4.03;;;2.78;;
19800;SDS011;10060;48.274;12.214;2022-07-29T18:30:25;2.50;;;2.25;;
19800;SDS011;10060;48.274;12.214;2022-07-29T18:33:27;7.70;;;2.58;;